Paul A Sacuta — VAGH — position and weather

sailwx.info

Track history (hours):
 
Tides and Currents Weather Stations Pressure Air Temp Water Temp Dewpoint Dewpoint Depression Visibility Wind Speed Wind Dir Waves Ship Positions

Paul A Sacuta

Last reported at 2018-Jul-05 01:53 UTC. Time now 2018-Jul-19 11:51 UTC.
Position N 47°23' W 051°50'.
Warning: this ship's position is 14 days out of date.

Length 91 m; draft 5.9 m.

Type: Other ship. MMSI: 316008810.

Date/timePositionNaut miles runAvg speedWind from/ knotsBaromVisibWave heightAir tempDewpointWater temp
2018-Jul-05 01:53N 47°23' W 051°50'410.3
2018-Jul-05 01:29N 47°25' W 051°55'610.4
2018-Jul-05 00:56N 47°27' W 052°04'610.4
2018-Jul-05 00:22N 47°28' W 052°12'410.5
2018-Jul-05 00:00N 47°30' W 052°17'610.4
2018-Jul-04 23:26N 47°31' W 052°26'510.3
2018-Jul-04 22:58N 47°33' W 052°32'5 9.9
2018-Jul-04 22:28N 47°34' W 052°40'2 3.2
2018-Jul-04 21:56N 47°34' W 052°42'0 0.0
2018-Jul-04 19:35N 47°34' W 052°42'0 0.0
2018-Jul-04 19:11N 47°34' W 052°42'0 0.0
2018-Jul-04 18:56N 47°34' W 052°42'0 0.0
2018-Jul-04 18:29N 47°34' W 052°42'0 0.0
2018-Jul-04 17:59N 47°34' W 052°42'0 0.0
2018-Jul-04 17:23N 47°34' W 052°42'0 0.0
2018-Jul-04 16:59N 47°34' W 052°42'0 0.0
2018-Jul-04 16:26N 47°34' W 052°42'0 0.0
2018-Jul-04 15:59N 47°34' W 052°42'0 0.0
2018-Jul-04 15:29N 47°34' W 052°42'0 0.0
2018-Jul-04 14:59N 47°34' W 052°42'0 0.0
2018-Jul-04 14:29N 47°34' W 052°42'0 0.0
2018-Jul-04 13:46N 47°34' W 052°42'0 0.3
2018-Jul-04 13:26N 47°34' W 052°42'0 0.0
2018-Jul-04 13:00N 47°34' W 052°42'0 0.0
2018-Jul-04 12:30N 47°34' W 052°42'0 0.0
2018-Jul-04 11:59N 47°34' W 052°42'3 5.8
2018-Jul-04 11:28N 47°34' W 052°38'5 9.0
2018-Jul-04 10:57N 47°32' W 052°31'5 9.6
2018-Jul-04 10:27N 47°30' W 052°24'4 9.8
2018-Jul-04 10:00N 47°29' W 052°18'  
2018-Jun-27 20:57N 47°27' W 052°07'610.9
2018-Jun-27 20:25N 47°29' W 052°16'511.0
2018-Jun-27 19:58N 47°31' W 052°23'511.2
2018-Jun-27 19:30N 47°32' W 052°30'611.3
2018-Jun-27 18:58N 47°34' W 052°39'2 4.1
2018-Jun-27 18:25N 47°34' W 052°42'0 0.0
2018-Jun-27 18:00N 47°34' W 052°42'0 0.0
2018-Jun-27 16:32N 47°34' W 052°42'0 0.0
2018-Jun-27 16:20N 47°34' W 052°42'0 0.0
2018-Jun-27 15:56N 47°34' W 052°42'0 0.0
2018-Jun-27 14:26N 47°34' W 052°42'0 0.0
2018-Jun-27 13:02N 47°34' W 052°42'0 0.0
2018-Jun-27 12:44N 47°34' W 052°42'0 0.0
2018-Jun-27 12:08N 47°34' W 052°42'0 0.0
2018-Jun-27 10:14N 47°34' W 052°42'0 0.0
2018-Jun-27 09:26N 47°34' W 052°42'0 0.0
2018-Jun-27 08:56N 47°34' W 052°42'0 0.0
2018-Jun-27 06:32N 47°34' W 052°42'0 0.0
2018-Jun-27 06:26N 47°34' W 052°42'0 0.0
2018-Jun-27 05:56N 47°34' W 052°42'0 0.0
2018-Jun-27 05:20N 47°34' W 052°42'0 0.0
2018-Jun-27 04:56N 47°34' W 052°42'0 0.0
2018-Jun-27 04:20N 47°34' W 052°42'0 0.0
2018-Jun-27 03:26N 47°34' W 052°42'0 0.0
2018-Jun-27 02:44N 47°34' W 052°42'0 0.0
2018-Jun-27 02:26N 47°34' W 052°42'0 0.0
2018-Jun-27 01:50N 47°34' W 052°42'0 0.0
2018-Jun-27 01:26N 47°34' W 052°42'0 0.0
2018-Jun-27 00:44N 47°34' W 052°42'0 0.0
2018-Jun-27 00:26N 47°34' W 052°42'0 0.0
2018-Jun-26 23:50N 47°34' W 052°42'0 0.0
2018-Jun-26 23:20N 47°34' W 052°42'0 0.0
2018-Jun-26 22:44N 47°34' W 052°42'0 0.0
2018-Jun-26 22:08N 47°34' W 052°42'0 0.0
2018-Jun-26 21:14N 47°34' W 052°42'0 0.0
2018-Jun-26 20:38N 47°34' W 052°42'1 6.4
2018-Jun-26 20:28N 47°34' W 052°40'712.5
2018-Jun-26 19:57N 47°32' W 052°31'712.6
2018-Jun-26 19:26N 47°30' W 052°22'612.7
2018-Jun-26 18:59N 47°29' W 052°14'0 0.0
2018-Jun-25 17:46N 47°29' W 052°14'414.0
2018-Jun-25 17:29N 47°30' W 052°20'714.2
2018-Jun-25 16:58N 47°32' W 052°30'714.0
2018-Jun-25 16:27N 47°34' W 052°41'1 1.7
2018-Jun-25 15:57N 47°34' W 052°42'0 0.0
2018-Jun-25 15:25N 47°34' W 052°42'0 0.0
2018-Jun-25 14:59N 47°34' W 052°42'0 0.0
2018-Jun-25 14:27N 47°34' W 052°42'0 0.0
2018-Jun-25 13:55N 47°34' W 052°42'0 0.0
2018-Jun-25 13:29N 47°34' W 052°42'0 0.0
2018-Jun-25 12:57N 47°34' W 052°42'0 0.0
2018-Jun-25 12:26N 47°34' W 052°42'0 0.0
2018-Jun-25 12:00N 47°34' W 052°42'0 0.0
2018-Jun-25 11:24N 47°34' W 052°42'0 0.0
2018-Jun-25 10:58N 47°34' W 052°42'0 0.0
2018-Jun-25 10:27N 47°34' W 052°42'0 0.0
2018-Jun-25 09:56N 47°34' W 052°42'3 6.7
2018-Jun-25 09:30N 47°34' W 052°38'5 9.2
2018-Jun-25 08:57N 47°32' W 052°31'4 8.8
2018-Jun-25 08:30N 47°31' W 052°25'5 9.1
2018-Jun-25 07:54N 47°29' W 052°17'  
Track history (hours):
 
Tides and Currents Weather Stations Pressure Air Temp Water Temp Dewpoint Dewpoint Depression Visibility Wind Speed Wind Dir Waves Ship Positions

Paul A Sacuta

Last reported at 2018-Jul-05 01:53 UTC. Time now 2018-Jul-19 11:51 UTC.
Position N 47°23' W 051°50'.
Warning: this ship's position is 14 days out of date.

Length 91 m; draft 5.9 m.

Type: Other ship. MMSI: 316008810.

Date/timePositionNaut miles runAvg speedWind from/ knotsBaromVisibWave heightAir tempDewpointWater temp
2018-Jul-05 01:53N 47°23' W 051°50'410.3
2018-Jul-05 01:29N 47°25' W 051°55'610.4
2018-Jul-05 00:56N 47°27' W 052°04'610.4
2018-Jul-05 00:22N 47°28' W 052°12'410.5
2018-Jul-05 00:00N 47°30' W 052°17'610.4
2018-Jul-04 23:26N 47°31' W 052°26'510.3
2018-Jul-04 22:58N 47°33' W 052°32'5 9.9
2018-Jul-04 22:28N 47°34' W 052°40'2 3.2
2018-Jul-04 21:56N 47°34' W 052°42'0 0.0
2018-Jul-04 19:35N 47°34' W 052°42'0 0.0
2018-Jul-04 19:11N 47°34' W 052°42'0 0.0
2018-Jul-04 18:56N 47°34' W 052°42'0 0.0
2018-Jul-04 18:29N 47°34' W 052°42'0 0.0
2018-Jul-04 17:59N 47°34' W 052°42'0 0.0
2018-Jul-04 17:23N 47°34' W 052°42'0 0.0
2018-Jul-04 16:59N 47°34' W 052°42'0 0.0
2018-Jul-04 16:26N 47°34' W 052°42'0 0.0
2018-Jul-04 15:59N 47°34' W 052°42'0 0.0
2018-Jul-04 15:29N 47°34' W 052°42'0 0.0
2018-Jul-04 14:59N 47°34' W 052°42'0 0.0
2018-Jul-04 14:29N 47°34' W 052°42'0 0.0
2018-Jul-04 13:46N 47°34' W 052°42'0 0.3
2018-Jul-04 13:26N 47°34' W 052°42'0 0.0
2018-Jul-04 13:00N 47°34' W 052°42'0 0.0
2018-Jul-04 12:30N 47°34' W 052°42'0 0.0
2018-Jul-04 11:59N 47°34' W 052°42'3 5.8
2018-Jul-04 11:28N 47°34' W 052°38'5 9.0
2018-Jul-04 10:57N 47°32' W 052°31'5 9.6
2018-Jul-04 10:27N 47°30' W 052°24'4 9.8
2018-Jul-04 10:00N 47°29' W 052°18'  
2018-Jun-27 20:57N 47°27' W 052°07'610.9
2018-Jun-27 20:25N 47°29' W 052°16'511.0
2018-Jun-27 19:58N 47°31' W 052°23'511.2
2018-Jun-27 19:30N 47°32' W 052°30'611.3
2018-Jun-27 18:58N 47°34' W 052°39'2 4.1
2018-Jun-27 18:25N 47°34' W 052°42'0 0.0
2018-Jun-27 18:00N 47°34' W 052°42'0 0.0
2018-Jun-27 16:32N 47°34' W 052°42'0 0.0
2018-Jun-27 16:20N 47°34' W 052°42'0 0.0
2018-Jun-27 15:56N 47°34' W 052°42'0 0.0
2018-Jun-27 14:26N 47°34' W 052°42'0 0.0
2018-Jun-27 13:02N 47°34' W 052°42'0 0.0
2018-Jun-27 12:44N 47°34' W 052°42'0 0.0
2018-Jun-27 12:08N 47°34' W 052°42'0 0.0
2018-Jun-27 10:14N 47°34' W 052°42'0 0.0
2018-Jun-27 09:26N 47°34' W 052°42'0 0.0
2018-Jun-27 08:56N 47°34' W 052°42'0 0.0
2018-Jun-27 06:32N 47°34' W 052°42'0 0.0
2018-Jun-27 06:26N 47°34' W 052°42'0 0.0
2018-Jun-27 05:56N 47°34' W 052°42'0 0.0
2018-Jun-27 05:20N 47°34' W 052°42'0 0.0
2018-Jun-27 04:56N 47°34' W 052°42'0 0.0
2018-Jun-27 04:20N 47°34' W 052°42'0 0.0
2018-Jun-27 03:26N 47°34' W 052°42'0 0.0
2018-Jun-27 02:44N 47°34' W 052°42'0 0.0
2018-Jun-27 02:26N 47°34' W 052°42'0 0.0
2018-Jun-27 01:50N 47°34' W 052°42'0 0.0
2018-Jun-27 01:26N 47°34' W 052°42'0 0.0
2018-Jun-27 00:44N 47°34' W 052°42'0 0.0
2018-Jun-27 00:26N 47°34' W 052°42'0 0.0
2018-Jun-26 23:50N 47°34' W 052°42'0 0.0
2018-Jun-26 23:20N 47°34' W 052°42'0 0.0
2018-Jun-26 22:44N 47°34' W 052°42'0 0.0
2018-Jun-26 22:08N 47°34' W 052°42'0 0.0
2018-Jun-26 21:14N 47°34' W 052°42'0 0.0
2018-Jun-26 20:38N 47°34' W 052°42'1 6.4
2018-Jun-26 20:28N 47°34' W 052°40'712.5
2018-Jun-26 19:57N 47°32' W 052°31'712.6
2018-Jun-26 19:26N 47°30' W 052°22'612.7
2018-Jun-26 18:59N 47°29' W 052°14'0 0.0
2018-Jun-25 17:46N 47°29' W 052°14'414.0
2018-Jun-25 17:29N 47°30' W 052°20'714.2
2018-Jun-25 16:58N 47°32' W 052°30'714.0
2018-Jun-25 16:27N 47°34' W 052°41'1 1.7
2018-Jun-25 15:57N 47°34' W 052°42'0 0.0
2018-Jun-25 15:25N 47°34' W 052°42'0 0.0
2018-Jun-25 14:59N 47°34' W 052°42'0 0.0
2018-Jun-25 14:27N 47°34' W 052°42'0 0.0
2018-Jun-25 13:55N 47°34' W 052°42'0 0.0
2018-Jun-25 13:29N 47°34' W 052°42'0 0.0
2018-Jun-25 12:57N 47°34' W 052°42'0 0.0
2018-Jun-25 12:26N 47°34' W 052°42'0 0.0
2018-Jun-25 12:00N 47°34' W 052°42'0 0.0
2018-Jun-25 11:24N 47°34' W 052°42'0 0.0
2018-Jun-25 10:58N 47°34' W 052°42'0 0.0
2018-Jun-25 10:27N 47°34' W 052°42'0 0.0
2018-Jun-25 09:56N 47°34' W 052°42'3 6.7
2018-Jun-25 09:30N 47°34' W 052°38'5 9.2
2018-Jun-25 08:57N 47°32' W 052°31'4 8.8
2018-Jun-25 08:30N 47°31' W 052°25'5 9.1
2018-Jun-25 07:54N 47°29' W 052°17'  

Dump ship's entire track history